Time;durP1;ratioP1;P1;durP2;ratioP2;P2;SDS_P1;SDS_P2;PMS_P1;PMS_P2;Temp;Humidity;BMP_temperature;BMP_pressure;BME280_temperature;BME280_humidity;BME280_pressure;Samples;Min_cycle;Max_cycle;Signal;HPM_P1;HPM_P2
2023/09/16 00:01:52;;;;;;;;;;;;;;;;;;5032963;27;89645;-75
2023/09/16 00:04:17;;;;;;;;;;;;;;;;;;5036690;27;89184;-71
2023/09/16 00:06:42;;;;;;;;;;;;;;;;;;5051218;27;88995;-67
2023/09/16 00:09:08;;;;;;;;;;;;;;;;;;5050857;27;89596;-69
2023/09/16 00:11:33;;;;;;;;;;;;;;;;;;5050917;27;90145;-68
2023/09/16 00:13:58;;;;;;;;;;;;;;;;;;5064724;27;89037;-71
2023/09/16 00:16:24;;;;;;;;;;;;;;;;;;5070812;27;89484;-67
2023/09/16 00:18:49;;;;;;;;;;;;;;;;;;5071232;27;89652;-70
2023/09/16 00:21:16;;;;;;;;;;;;;;;;;;5080132;27;90604;-70
2023/09/16 00:23:42;;;;;;;;;;;;;;;;;;5082047;27;90373;-78
2023/09/16 00:26:07;;;;;;;;;;;;;;;;;;5072352;27;89162;-73
2023/09/16 00:28:35;;;;;;;;;;;;;;;;;;5043654;27;90600;-71
2023/09/16 00:31:01;;;;;;;;;;;;;;;;;;5049338;27;90218;-73
2023/09/16 00:33:26;;;;;;;;;;;;;;;;;;5048978;27;89400;-75
2023/09/16 00:35:51;;;;;;;;;;;;;;;;;;5032726;27;89710;-76
2023/09/16 00:38:17;;;;;;;;;;;;;;;;;;5039709;27;89360;-79
2023/09/16 00:40:42;;;;;;;;;;;;;;;;;;5049544;27;90578;-77
2023/09/16 00:43:08;;;;;;;;;;;;;;;;;;5050059;27;89423;-78
2023/09/16 00:45:33;;;;;;;;;;;;;;;;;;5049986;27;89058;-78
2023/09/16 00:47:58;;;;;;;;;;;;;;;;;;5049996;27;89929;-79
2023/09/16 00:50:23;;;;;;;;;;;;;;;;;;5049869;27;89312;-79
2023/09/16 00:52:54;;;;;;;;;;;;;;;;;;5051042;27;90371;-79
2023/09/16 00:55:20;;;;;;;;;;;;;;;;;;5050281;27;89957;-78
2023/09/16 00:57:47;;;;;;;;;;;;;;;;;;5053274;27;90120;-78
2023/09/16 01:00:13;;;;;;;;;;;;;;;;;;5050150;27;89533;-79
2023/09/16 01:02:38;;;;;;;;;;;;;;;;;;5049646;27;89240;-76
2023/09/16 01:05:04;;;;;;;;;;;;;;;;;;5049744;27;89199;-76
2023/09/16 01:07:30;;;;;;;;;;;;;;;;;;5049871;27;90801;-77
2023/09/16 01:09:55;;;;;;;;;;;;;;;;;;5050609;27;90844;-77
2023/09/16 01:12:20;;;;;;;;;;;;;;;;;;5049768;27;89035;-77
2023/09/16 01:14:46;;;;;;;;;;;;;;;;;;5067038;27;89514;-79
2023/09/16 01:17:23;;;;;;;;;;;;;;;;;;5069813;27;90309;-74
2023/09/16 01:20:01;;;;;;;;;;;;;;;;;;5074331;27;89154;-79
2023/09/16 01:22:26;;;;;;;;;;;;;;;;;;5069769;27;90392;-77
2023/09/16 01:24:52;;;;;;;;;;;;;;;;;;5070149;27;89312;-70
2023/09/16 01:27:17;;;;;;;;;;;;;;;;;;5053516;27;90373;-73
2023/09/16 01:29:44;;;;;;;;;;;;;;;;;;5028761;27;89218;-72
2023/09/16 01:32:10;;;;;;;;;;;;;;;;;;5046115;27;89653;-73
2023/09/16 01:34:49;;;;;;;;;;;;;;;;;;5044394;27;90292;-72
2023/09/16 01:37:18;;;;;;;;;;;;;;;;;;5028791;27;90378;-73
2023/09/16 01:39:49;;;;;;;;;;;;;;;;;;5028369;27;89164;-73
2023/09/16 01:42:16;;;;;;;;;;;;;;;;;;5031694;28;89055;-67
2023/09/16 01:44:41;;;;;;;;;;;;;;;;;;5028773;28;89906;-71
2023/09/16 01:47:07;;;;;;;;;;;;;;;;;;5029018;27;89796;-68
2023/09/16 01:49:32;;;;;;;;;;;;;;;;;;5028610;27;90316;-70
2023/09/16 01:51:57;;;;;;;;;;;;;;;;;;5029514;27;89464;-76
2023/09/16 01:54:22;;;;;;;;;;;;;;;;;;5029027;28;89738;-79
2023/09/16 01:56:48;;;;;;;;;;;;;;;;;;5029124;28;89599;-73
2023/09/16 01:59:13;;;;;;;;;;;;;;;;;;5029089;28;89931;-78
2023/09/16 02:01:38;;;;;;;;;;;;;;;;;;5028567;27;89547;-76
2023/09/16 02:04:03;;;;;;;;;;;;;;;;;;5031745;28;90220;-75
2023/09/16 02:06:28;;;;;;;;;;;;;;;;;;5029411;28;89526;-78
2023/09/16 02:08:54;;;;;;;;;;;;;;;;;;5028798;28;89185;-71
2023/09/16 02:11:19;;;;;;;;;;;;;;;;;;5029090;28;89427;-72
2023/09/16 02:13:44;;;;;;;;;;;;;;;;;;5045658;27;90071;-79
2023/09/16 02:16:10;;;;;;;;;;;;;;;;;;5069339;27;89486;-66
2023/09/16 02:18:35;;;;;;;;;;;;;;;;;;5069345;27;89532;-78
2023/09/16 02:21:00;;;;;;;;;;;;;;;;;;5068963;27;89910;-78
2023/09/16 02:23:26;;;;;;;;;;;;;;;;;;5058183;27;89606;-76
2023/09/16 02:25:51;;;;;;;;;;;;;;;;;;5048345;27;89713;-75
2023/09/16 02:28:16;;;;;;;;;;;;;;;;;;5048694;27;89680;-67
2023/09/16 02:30:42;;;;;;;;;;;;;;;;;;5048023;27;89178;-68
2023/09/16 02:33:07;;;;;;;;;;;;;;;;;;5064252;27;89568;-69
2023/09/16 02:35:33;;;;;;;;;;;;;;;;;;5051567;27;89116;-74
2023/09/16 02:37:58;;;;;;;;;;;;;;;;;;5049176;27;89682;-70
2023/09/16 02:40:24;;;;;;;;;;;;;;;;;;5049183;27;90602;-77
2023/09/16 02:42:49;;;;;;;;;;;;;;;;;;5048465;27;89401;-79
2023/09/16 02:45:14;;;;;;;;;;;;;;;;;;5049589;27;89470;-73
2023/09/16 02:47:40;;;;;;;;;;;;;;;;;;5047611;27;90463;-76
2023/09/16 02:50:07;;;;;;;;;;;;;;;;;;5048811;27;89066;-77
2023/09/16 02:52:32;;;;;;;;;;;;;;;;;;5048756;27;89674;-74
2023/09/16 02:54:57;;;;;;;;;;;;;;;;;;5048171;27;89098;-78
2023/09/16 02:57:22;;;;;;;;;;;;;;;;;;5048780;27;89052;-78
2023/09/16 02:59:47;;;;;;;;;;;;;;;;;;5048452;27;89788;-78
2023/09/16 03:02:13;;;;;;;;;;;;;;;;;;5048202;27;89447;-72
2023/09/16 03:04:38;;;;;;;;;;;;;;;;;;5049017;27;89446;-80
2023/09/16 03:07:03;;;;;;;;;;;;;;;;;;5051576;27;90745;-79
2023/09/16 03:09:28;;;;;;;;;;;;;;;;;;5048772;27;89303;-70
2023/09/16 03:11:54;;;;;;;;;;;;;;;;;;5048629;27;89999;-67
2023/09/16 03:14:19;;;;;;;;;;;;;;;;;;5047847;27;89495;-74
2023/09/16 03:16:45;;;;;;;;;;;;;;;;;;5048640;27;89638;-77
2023/09/16 03:19:11;;;;;;;;;;;;;;;;;;5048797;27;89479;-77
2023/09/16 03:21:36;;;;;;;;;;;;;;;;;;5038542;27;89636;-79
2023/09/16 03:24:01;;;;;;;;;;;;;;;;;;5040347;27;88993;-79
2023/09/16 03:26:26;;;;;;;;;;;;;;;;;;5048394;27;90875;-77
2023/09/16 03:28:53;;;;;;;;;;;;;;;;;;5035253;27;89525;-79
2023/09/16 03:31:18;;;;;;;;;;;;;;;;;;5028102;28;89788;-81
2023/09/16 03:33:43;;;;;;;;;;;;;;;;;;5027770;28;89433;-79
2023/09/16 03:36:08;;;;;;;;;;;;;;;;;;5027965;28;89064;-75
2023/09/16 03:38:34;;;;;;;;;;;;;;;;;;5027759;27;89586;-74
2023/09/16 03:41:00;;;;;;;;;;;;;;;;;;5047870;27;89180;-80
2023/09/16 03:43:26;;;;;;;;;;;;;;;;;;5049011;27;89541;-80
2023/09/16 03:45:51;;;;;;;;;;;;;;;;;;5048827;27;90772;-77
2023/09/16 03:48:16;;;;;;;;;;;;;;;;;;5048364;27;90309;-81
2023/09/16 03:50:41;;;;;;;;;;;;;;;;;;5051678;27;90222;-79
2023/09/16 03:53:06;;;;;;;;;;;;;;;;;;5048523;27;90070;-77
2023/09/16 03:55:32;;;;;;;;;;;;;;;;;;5048041;27;89874;-76
2023/09/16 03:57:57;;;;;;;;;;;;;;;;;;5047969;27;90487;-73
2023/09/16 04:00:22;;;;;;;;;;;;;;;;;;5047000;27;89789;-78
2023/09/16 04:02:48;;;;;;;;;;;;;;;;;;5036732;27;89574;-80
2023/09/16 04:05:13;;;;;;;;;;;;;;;;;;5037620;27;89659;-71
2023/09/16 04:07:39;;;;;;;;;;;;;;;;;;5034773;27;90207;-68
2023/09/16 04:10:06;;;;;;;;;;;;;;;;;;5033200;27;89928;-73
2023/09/16 04:12:31;;;;;;;;;;;;;;;;;;5040705;27;89085;-77
2023/09/16 04:14:57;;;;;;;;;;;;;;;;;;5041119;27;89584;-79
2023/09/16 04:17:22;;;;;;;;;;;;;;;;;;5035619;27;89814;-68
2023/09/16 04:19:47;;;;;;;;;;;;;;;;;;5032160;27;89506;-77
2023/09/16 04:22:13;;;;;;;;;;;;;;;;;;5036480;27;91111;-66
2023/09/16 04:24:38;;;;;;;;;;;;;;;;;;5035312;27;89550;-80
2023/09/16 04:27:04;;;;;;;;;;;;;;;;;;5036804;27;90234;-66
2023/09/16 04:29:29;;;;;;;;;;;;;;;;;;5033964;27;91188;-66
2023/09/16 04:31:54;;;;;;;;;;;;;;;;;;5032526;27;89530;-67
2023/09/16 04:34:19;;;;;;;;;;;;;;;;;;5037344;27;89626;-66
2023/09/16 04:36:45;;;;;;;;;;;;;;;;;;5035412;27;90741;-69
2023/09/16 04:39:10;;;;;;;;;;;;;;;;;;5030041;27;91397;-66
2023/09/16 04:41:35;;;;;;;;;;;;;;;;;;5041854;27;90405;-71
2023/09/16 04:44:00;;;;;;;;;;;;;;;;;;5043820;27;89246;-80
2023/09/16 04:46:26;;;;;;;;;;;;;;;;;;5043428;27;89268;-80
2023/09/16 04:48:51;;;;;;;;;;;;;;;;;;5042238;27;89479;-71
2023/09/16 04:51:16;;;;;;;;;;;;;;;;;;5038322;27;89507;-67
2023/09/16 04:53:41;;;;;;;;;;;;;;;;;;5041269;27;89740;-66
2023/09/16 04:56:09;;;;;;;;;;;;;;;;;;5038905;27;90114;-70
2023/09/16 04:58:35;;;;;;;;;;;;;;;;;;5037810;27;89632;-77
2023/09/16 05:01:00;;;;;;;;;;;;;;;;;;5038588;27;89682;-80
2023/09/16 05:03:26;;;;;;;;;;;;;;;;;;5040036;27;89060;-74
2023/09/16 05:05:52;;;;;;;;;;;;;;;;;;5036777;27;90266;-76
2023/09/16 05:08:17;;;;;;;;;;;;;;;;;;5043577;27;89978;-80
2023/09/16 05:10:42;;;;;;;;;;;;;;;;;;5035436;27;90309;-74
2023/09/16 05:13:07;;;;;;;;;;;;;;;;;;5046716;27;90887;-79
2023/09/16 05:15:33;;;;;;;;;;;;;;;;;;5043619;27;90036;-71
2023/09/16 05:17:58;;;;;;;;;;;;;;;;;;5039270;27;89907;-76
2023/09/16 05:20:23;;;;;;;;;;;;;;;;;;5039408;27;89759;-79
2023/09/16 05:22:50;;;;;;;;;;;;;;;;;;5037683;27;89443;-71
2023/09/16 05:25:15;;;;;;;;;;;;;;;;;;5036156;27;92412;-72
2023/09/16 05:27:40;;;;;;;;;;;;;;;;;;5038198;27;89140;-71
2023/09/16 05:30:06;;;;;;;;;;;;;;;;;;5035701;27;90184;-76
2023/09/16 05:32:31;;;;;;;;;;;;;;;;;;5035991;27;89232;-73
2023/09/16 05:34:56;;;;;;;;;;;;;;;;;;5036368;27;90163;-76
2023/09/16 05:37:22;;;;;;;;;;;;;;;;;;5040306;27;92594;-76
2023/09/16 05:39:47;;;;;;;;;;;;;;;;;;5039149;27;89160;-76
2023/09/16 05:42:12;;;;;;;;;;;;;;;;;;5044381;27;89463;-74
2023/09/16 05:44:37;;;;;;;;;;;;;;;;;;5039214;27;90408;-75
2023/09/16 05:47:03;;;;;;;;;;;;;;;;;;5038292;27;89128;-73
2023/09/16 05:49:28;;;;;;;;;;;;;;;;;;5039438;27;89601;-69
2023/09/16 05:51:53;;;;;;;;;;;;;;;;;;5040585;27;90192;-68
2023/09/16 05:54:19;;;;;;;;;;;;;;;;;;5040057;27;90479;-69
2023/09/16 05:56:46;;;;;;;;;;;;;;;;;;5037928;27;89632;-74
2023/09/16 05:59:11;;;;;;;;;;;;;;;;;;5039008;27;89642;-69
2023/09/16 06:01:37;;;;;;;;;;;;;;;;;;5031826;27;91195;-72
2023/09/16 06:04:03;;;;;;;;;;;;;;;;;;5037460;27;89347;-69
2023/09/16 06:06:28;;;;;;;;;;;;;;;;;;5036271;27;89817;-70
2023/09/16 06:08:53;;;;;;;;;;;;;;;;;;5038924;27;89589;-70
2023/09/16 06:11:19;;;;;;;;;;;;;;;;;;5029632;27;90229;-68
2023/09/16 06:13:44;;;;;;;;;;;;;;;;;;5048737;27;89923;-72
2023/09/16 06:16:09;;;;;;;;;;;;;;;;;;5038102;27;89465;-68
2023/09/16 06:18:37;;;;;;;;;;;;;;;;;;5041735;27;89799;-72
2023/09/16 06:21:02;;;;;;;;;;;;;;;;;;5039309;27;89433;-69
2023/09/16 06:23:28;;;;;;;;;;;;;;;;;;5038968;27;89287;-75
2023/09/16 06:25:53;;;;;;;;;;;;;;;;;;5037659;27;90059;-64
2023/09/16 06:28:18;;;;;;;;;;;;;;;;;;5040094;27;90330;-68
2023/09/16 06:30:44;;;;;;;;;;;;;;;;;;5031760;27;90112;-68
2023/09/16 06:33:09;;;;;;;;;;;;;;;;;;5036485;27;89623;-68
2023/09/16 06:35:34;;;;;;;;;;;;;;;;;;5032632;27;89634;-67
2023/09/16 06:37:59;;;;;;;;;;;;;;;;;;5031243;27;89591;-68
2023/09/16 06:40:24;;;;;;;;;;;;;;;;;;5037125;27;90488;-66
2023/09/16 06:42:50;;;;;;;;;;;;;;;;;;5028326;27;89639;-66
2023/09/16 06:45:15;;;;;;;;;;;;;;;;;;5035418;27;89019;-67
2023/09/16 06:47:40;;;;;;;;;;;;;;;;;;5031691;27;89449;-65
2023/09/16 06:50:06;;;;;;;;;;;;;;;;;;5038595;27;90188;-66
2023/09/16 06:52:31;;;;;;;;;;;;;;;;;;5038255;27;89424;-71
2023/09/16 06:54:56;;;;;;;;;;;;;;;;;;5043638;27;92899;-73
2023/09/16 06:57:22;;;;;;;;;;;;;;;;;;5040821;27;89553;-73
2023/09/16 06:59:48;;;;;;;;;;;;;;;;;;5036873;27;89169;-70
2023/09/16 07:02:14;;;;;;;;;;;;;;;;;;5034770;27;89979;-67
2023/09/16 07:04:40;;;;;;;;;;;;;;;;;;5038538;27;89631;-70
2023/09/16 07:07:06;;;;;;;;;;;;;;;;;;5037147;27;89522;-66
2023/09/16 07:09:31;;;;;;;;;;;;;;;;;;5035999;27;89608;-65
2023/09/16 07:11:56;;;;;;;;;;;;;;;;;;5036205;27;89560;-67
2023/09/16 07:14:21;;;;;;;;;;;;;;;;;;5043001;27;89472;-69
2023/09/16 07:16:46;;;;;;;;;;;;;;;;;;5036454;27;90803;-66
2023/09/16 07:19:12;;;;;;;;;;;;;;;;;;5038635;27;89696;-65
2023/09/16 07:21:37;;;;;;;;;;;;;;;;;;5040900;27;90207;-69
2023/09/16 07:24:02;;;;;;;;;;;;;;;;;;5038843;27;91955;-66
2023/09/16 07:26:28;;;;;;;;;;;;;;;;;;5040409;27;89007;-66
2023/09/16 07:28:53;;;;;;;;;;;;;;;;;;5035370;27;90510;-69
2023/09/16 07:31:18;;;;;;;;;;;;;;;;;;5034662;27;90456;-65
2023/09/16 07:33:45;;;;;;;;;;;;;;;;;;5042079;27;90004;-66
2023/09/16 07:36:10;;;;;;;;;;;;;;;;;;5040775;27;89158;-66
2023/09/16 07:38:35;;;;;;;;;;;;;;;;;;5038187;27;89322;-66
2023/09/16 07:41:01;;;;;;;;;;;;;;;;;;5039328;27;89113;-66
2023/09/16 07:43:26;;;;;;;;;;;;;;;;;;5036356;27;89190;-66
2023/09/16 07:45:51;;;;;;;;;;;;;;;;;;5039902;27;89521;-67
2023/09/16 07:48:17;;;;;;;;;;;;;;;;;;5038779;27;90288;-65
2023/09/16 07:50:42;;;;;;;;;;;;;;;;;;5035154;27;89760;-68
2023/09/16 07:53:07;;;;;;;;;;;;;;;;;;5040289;27;90378;-72
2023/09/16 07:55:32;;;;;;;;;;;;;;;;;;5037293;27;90488;-71
2023/09/16 07:57:58;;;;;;;;;;;;;;;;;;5041969;27;89653;-66
2023/09/16 08:00:23;;;;;;;;;;;;;;;;;;5035225;27;90961;-66
2023/09/16 08:02:48;;;;;;;;;;;;;;;;;;5038466;27;90302;-66
2023/09/16 08:05:13;;;;;;;;;;;;;;;;;;5041127;27;90906;-66
2023/09/16 08:07:38;;;;;;;;;;;;;;;;;;5044804;27;90238;-69
2023/09/16 08:10:04;;;;;;;;;;;;;;;;;;5040259;27;89153;-66
2023/09/16 08:12:29;;;;;;;;;;;;;;;;;;5039761;27;89633;-68
2023/09/16 08:14:54;;;;;;;;;;;;;;;;;;5041323;27;89919;-68
2023/09/16 08:17:20;;;;;;;;;;;;;;;;;;5040151;27;89863;-70
2023/09/16 08:19:45;;;;;;;;;;;;;;;;;;5040989;27;90335;-68
2023/09/16 08:22:10;;;;;;;;;;;;;;;;;;5031427;27;89715;-72
2023/09/16 08:24:35;;;;;;;;;;;;;;;;;;5040734;27;89464;-70
2023/09/16 08:27:01;;;;;;;;;;;;;;;;;;5041292;27;89506;-72
2023/09/16 08:29:26;;;;;;;;;;;;;;;;;;5036363;27;89504;-71
2023/09/16 08:31:51;;;;;;;;;;;;;;;;;;5046328;27;89976;-73
2023/09/16 08:34:17;;;;;;;;;;;;;;;;;;5041855;27;90276;-72
2023/09/16 08:36:42;;;;;;;;;;;;;;;;;;5041674;27;89830;-72
2023/09/16 08:39:07;;;;;;;;;;;;;;;;;;5037432;27;89994;-73
2023/09/16 08:41:39;;;;;;;;;;;;;;;;;;5044989;27;88910;-73
2023/09/16 08:44:05;;;;;;;;;;;;;;;;;;5041413;27;89500;-73
2023/09/16 08:46:32;;;;;;;;;;;;;;;;;;5041562;27;89703;-69
2023/09/16 08:48:59;;;;;;;;;;;;;;;;;;5044547;27;89507;-68
2023/09/16 08:51:24;;;;;;;;;;;;;;;;;;5040183;27;91471;-72
2023/09/16 08:53:51;;;;;;;;;;;;;;;;;;5043806;27;89774;-73
2023/09/16 08:56:17;;;;;;;;;;;;;;;;;;5039128;27;89098;-73
2023/09/16 08:58:43;;;;;;;;;;;;;;;;;;5041881;27;91183;-70
2023/09/16 09:01:09;;;;;;;;;;;;;;;;;;5038528;27;91241;-66
2023/09/16 09:03:34;;;;;;;;;;;;;;;;;;5042305;27;90517;-67
2023/09/16 09:06:00;;;;;;;;;;;;;;;;;;5041453;27;90682;-70
2023/09/16 09:08:25;;;;;;;;;;;;;;;;;;5038406;27;89688;-72
2023/09/16 09:10:51;;;;;;;;;;;;;;;;;;5045009;27;90092;-73
2023/09/16 09:13:16;;;;;;;;;;;;;;;;;;5043703;27;90157;-73
2023/09/16 09:15:42;;;;;;;;;;;;;;;;;;5039242;27;88991;-71
2023/09/16 09:18:08;;;;;;;;;;;;;;;;;;5043928;27;90410;-67
2023/09/16 09:20:33;;;;;;;;;;;;;;;;;;5041931;27;89649;-69
2023/09/16 09:22:59;;;;;;;;;;;;;;;;;;5042872;27;90064;-68
2023/09/16 09:25:25;;;;;;;;;;;;;;;;;;5038978;27;89568;-68
2023/09/16 09:27:51;;;;;;;;;;;;;;;;;;5039227;27;90364;-69
2023/09/16 09:30:24;;;;;;;;;;;;;;;;;;5044679;27;89674;-69
2023/09/16 09:32:49;;;;;;;;;;;;;;;;;;5046485;27;90927;-67
2023/09/16 09:35:14;;;;;;;;;;;;;;;;;;5037725;27;89507;-69
2023/09/16 09:37:40;;;;;;;;;;;;;;;;;;5041394;27;89515;-68
2023/09/16 09:40:08;;;;;;;;;;;;;;;;;;5040848;27;89035;-67
2023/09/16 09:42:37;;;;;;;;;;;;;;;;;;5042927;27;89531;-73
2023/09/16 09:45:02;;;;;;;;;;;;;;;;;;5036350;27;89655;-68
2023/09/16 09:47:28;;;;;;;;;;;;;;;;;;5040941;27;89104;-67
2023/09/16 09:49:53;;;;;;;;;;;;;;;;;;5037021;27;90012;-72
2023/09/16 09:52:18;;;;;;;;;;;;;;;;;;5039575;27;89572;-69
2023/09/16 09:54:45;;;;;;;;;;;;;;;;;;5040582;27;89692;-69
2023/09/16 09:57:10;;;;;;;;;;;;;;;;;;5037806;27;89506;-66
2023/09/16 09:59:35;;;;;;;;;;;;;;;;;;5034310;27;89215;-66
2023/09/16 10:02:03;;;;;;;;;;;;;;;;;;5041485;27;89040;-65
2023/09/16 10:04:29;;;;;;;;;;;;;;;;;;5047260;27;90672;-67
2023/09/16 10:06:56;;;;;;;;;;;;;;;;;;5037691;27;89419;-66
2023/09/16 10:09:21;;;;;;;;;;;;;;;;;;5041516;27;89881;-66
2023/09/16 10:11:46;;;;;;;;;;;;;;;;;;5037334;27;90575;-66
2023/09/16 10:14:12;;;;;;;;;;;;;;;;;;5047238;27;89977;-65
2023/09/16 10:16:38;;;;;;;;;;;;;;;;;;5042788;27;88987;-67
2023/09/16 10:19:03;;;;;;;;;;;;;;;;;;5042641;27;89897;-70
2023/09/16 10:21:28;;;;;;;;;;;;;;;;;;5037735;27;89062;-65
2023/09/16 10:23:53;;;;;;;;;;;;;;;;;;5039927;27;89588;-66
2023/09/16 10:26:20;;;;;;;;;;;;;;;;;;5033685;27;91759;-67
2023/09/16 10:28:46;;;;;;;;;;;;;;;;;;5039106;27;89462;-70
2023/09/16 10:31:12;;;;;;;;;;;;;;;;;;5039394;27;89727;-69
2023/09/16 10:33:39;;;;;;;;;;;;;;;;;;5047397;27;89806;-70
2023/09/16 10:36:05;;;;;;;;;;;;;;;;;;5046995;27;92066;-66
2023/09/16 10:38:31;;;;;;;;;;;;;;;;;;5044058;27;89405;-66
2023/09/16 10:40:56;;;;;;;;;;;;;;;;;;5040988;27;90950;-65
2023/09/16 10:43:22;;;;;;;;;;;;;;;;;;5041232;27;89936;-69
2023/09/16 10:45:48;;;;;;;;;;;;;;;;;;5035946;27;90832;-69
2023/09/16 10:48:13;;;;;;;;;;;;;;;;;;5041430;27;89076;-71
2023/09/16 10:50:39;;;;;;;;;;;;;;;;;;5045313;27;89672;-71
2023/09/16 10:53:07;;;;;;;;;;;;;;;;;;5043649;27;90149;-69
2023/09/16 10:55:52;;;;;;;;;;;;;;;;;;5043405;27;90740;-73
2023/09/16 10:58:35;;;;;;;;;;;;;;;;;;5049281;27;90610;-70
2023/09/16 11:01:01;;;;;;;;;;;;;;;;;;5034454;27;89239;-65
2023/09/16 11:03:29;;;;;;;;;;;;;;;;;;5038012;27;89929;-68
2023/09/16 11:05:57;;;;;;;;;;;;;;;;;;5034412;27;90298;-69
2023/09/16 11:08:23;;;;;;;;;;;;;;;;;;5053824;27;90291;-66
2023/09/16 11:10:48;;;;;;;;;;;;;;;;;;5036209;27;89830;-65
2023/09/16 11:13:13;;;;;;;;;;;;;;;;;;5045988;27;89557;-67
2023/09/16 11:15:40;;;;;;;;;;;;;;;;;;5034424;27;89070;-64
2023/09/16 11:18:10;;;;;;;;;;;;;;;;;;5034717;27;91092;-65
2023/09/16 11:20:36;;;;;;;;;;;;;;;;;;5044261;27;90266;-65
2023/09/16 11:23:05;;;;;;;;;;;;;;;;;;5036833;27;90537;-65
2023/09/16 11:25:34;;;;;;;;;;;;;;;;;;5039121;27;91174;-66
2023/09/16 11:28:00;;;;;;;;;;;;;;;;;;5038165;27;89580;-70
2023/09/16 11:30:25;;;;;;;;;;;;;;;;;;5037859;27;90641;-65
2023/09/16 11:32:57;;;;;;;;;;;;;;;;;;5040856;27;89077;-71
2023/09/16 11:35:23;;;;;;;;;;;;;;;;;;5041195;27;89872;-67
2023/09/16 11:37:48;;;;;;;;;;;;;;;;;;5041304;27;90155;-67
2023/09/16 11:40:14;;;;;;;;;;;;;;;;;;5040700;27;89934;-67
2023/09/16 11:42:39;;;;;;;;;;;;;;;;;;5046420;27;89342;-69
2023/09/16 11:45:05;;;;;;;;;;;;;;;;;;5041263;27;91034;-65
2023/09/16 11:47:30;;;;;;;;;;;;;;;;;;5037507;27;89945;-72
2023/09/16 11:49:55;;;;;;;;;;;;;;;;;;5039034;27;89549;-64
2023/09/16 11:52:21;;;;;;;;;;;;;;;;;;5033303;27;89646;-65
2023/09/16 11:54:47;;;;;;;;;;;;;;;;;;5041984;27;89126;-66
2023/09/16 11:57:12;;;;;;;;;;;;;;;;;;5040010;27;89634;-67
2023/09/16 11:59:37;;;;;;;;;;;;;;;;;;5037988;27;89966;-72
2023/09/16 12:02:03;;;;;;;;;;;;;;;;;;5031153;27;89632;-70
2023/09/16 12:04:30;;;;;;;;;;;;;;;;;;5044661;27;90302;-70
2023/09/16 12:06:55;;;;;;;;;;;;;;;;;;5036580;27;89882;-71
2023/09/16 12:09:22;;;;;;;;;;;;;;;;;;5043423;27;89093;-66
2023/09/16 12:11:49;;;;;;;;;;;;;;;;;;5043551;27;90719;-67
2023/09/16 12:14:15;;;;;;;;;;;;;;;;;;5050068;27;89765;-66
2023/09/16 12:16:40;;;;;;;;;;;;;;;;;;5046720;27;89679;-66
2023/09/16 12:19:05;;;;;;;;;;;;;;;;;;5047589;27;89817;-66
2023/09/16 12:21:31;;;;;;;;;;;;;;;;;;5040642;27;89124;-67
2023/09/16 12:23:56;;;;;;;;;;;;;;;;;;5047700;27;89643;-66
2023/09/16 12:26:22;;;;;;;;;;;;;;;;;;5046194;27;91702;-69
2023/09/16 12:28:47;;;;;;;;;;;;;;;;;;5041793;27;90898;-66
2023/09/16 12:31:12;;;;;;;;;;;;;;;;;;5047952;27;89594;-66
2023/09/16 12:33:38;;;;;;;;;;;;;;;;;;5045368;27;89974;-69
2023/09/16 12:36:04;;;;;;;;;;;;;;;;;;5045983;27;90664;-66
2023/09/16 12:38:30;;;;;;;;;;;;;;;;;;5041693;27;89154;-72
2023/09/16 12:40:55;;;;;;;;;;;;;;;;;;5042683;27;89758;-68
2023/09/16 12:43:20;;;;;;;;;;;;;;;;;;5039280;27;91938;-71
2023/09/16 12:45:46;;;;;;;;;;;;;;;;;;5045960;27;89925;-71
2023/09/16 12:48:11;;;;;;;;;;;;;;;;;;5041201;27;89559;-71
2023/09/16 12:50:37;;;;;;;;;;;;;;;;;;5046303;27;91705;-71
2023/09/16 12:53:02;;;;;;;;;;;;;;;;;;5046868;27;89627;-66
2023/09/16 12:55:27;;;;;;;;;;;;;;;;;;5046932;27;89788;-68
2023/09/16 12:57:53;;;;;;;;;;;;;;;;;;5045911;27;89196;-66
2023/09/16 13:00:20;;;;;;;;;;;;;;;;;;5049438;27;89181;-68
2023/09/16 13:02:46;;;;;;;;;;;;;;;;;;5051370;27;89801;-66
2023/09/16 13:05:16;;;;;;;;;;;;;;;;;;5049036;27;90790;-73
2023/09/16 13:07:44;;;;;;;;;;;;;;;;;;5049007;27;89822;-67
2023/09/16 13:10:09;;;;;;;;;;;;;;;;;;5043551;27;90271;-67
2023/09/16 13:12:35;;;;;;;;;;;;;;;;;;5048128;27;89342;-66
2023/09/16 13:15:01;;;;;;;;;;;;;;;;;;5049522;27;90680;-67
2023/09/16 13:17:26;;;;;;;;;;;;;;;;;;5048615;27;90396;-67
2023/09/16 13:19:51;;;;;;;;;;;;;;;;;;5045671;27;90800;-66
2023/09/16 13:22:18;;;;;;;;;;;;;;;;;;5047338;27;90550;-66
2023/09/16 13:24:45;;;;;;;;;;;;;;;;;;5045713;27;89674;-66
2023/09/16 13:27:15;;;;;;;;;;;;;;;;;;5046593;27;89350;-67
2023/09/16 13:29:40;;;;;;;;;;;;;;;;;;5049167;27;89562;-66
2023/09/16 13:32:06;;;;;;;;;;;;;;;;;;5052865;27;89150;-66
2023/09/16 13:34:57;;;;;;;;;;;;;;;;;;5045609;27;90988;-68
2023/09/16 13:37:22;;;;;;;;;;;;;;;;;;5045529;27;89584;-68
2023/09/16 13:39:48;;;;;;;;;;;;;;;;;;5043523;27;89635;-67
2023/09/16 13:42:13;;;;;;;;;;;;;;;;;;5043479;27;90726;-74
2023/09/16 13:44:42;;;;;;;;;;;;;;;;;;5045983;27;89218;-75
2023/09/16 13:47:07;;;;;;;;;;;;;;;;;;5045686;27;89073;-70
2023/09/16 13:49:33;;;;;;;;;;;;;;;;;;5041725;27;90932;-72
2023/09/16 13:51:58;;;;;;;;;;;;;;;;;;5050623;27;89162;-72
2023/09/16 13:54:23;;;;;;;;;;;;;;;;;;5045495;27;90043;-71
2023/09/16 13:56:48;;;;;;;;;;;;;;;;;;5045023;27;89529;-71
2023/09/16 13:59:14;;;;;;;;;;;;;;;;;;5045908;27;89260;-72
2023/09/16 14:01:39;;;;;;;;;;;;;;;;;;5041093;27;90015;-73
2023/09/16 14:04:04;;;;;;;;;;;;;;;;;;5041988;27;89596;-66
2023/09/16 14:06:30;;;;;;;;;;;;;;;;;;5044143;27;89779;-72
2023/09/16 14:08:55;;;;;;;;;;;;;;;;;;5045338;27;89541;-73
2023/09/16 14:11:20;;;;;;;;;;;;;;;;;;5042683;27;89521;-68
2023/09/16 14:13:46;;;;;;;;;;;;;;;;;;5053239;27;89165;-70
2023/09/16 14:16:11;;;;;;;;;;;;;;;;;;5041355;27;90442;-73
2023/09/16 14:18:36;;;;;;;;;;;;;;;;;;5045531;27;90349;-68
2023/09/16 14:21:02;;;;;;;;;;;;;;;;;;5041247;27;91378;-67
2023/09/16 14:23:28;;;;;;;;;;;;;;;;;;5044639;27;89515;-68
2023/09/16 14:25:53;;;;;;;;;;;;;;;;;;5041536;27;89720;-74
2023/09/16 14:28:19;;;;;;;;;;;;;;;;;;5043980;27;90118;-77
2023/09/16 14:30:44;;;;;;;;;;;;;;;;;;5047540;27;89750;-78
2023/09/16 14:33:09;;;;;;;;;;;;;;;;;;5040546;27;89734;-76
2023/09/16 14:35:34;;;;;;;;;;;;;;;;;;5048629;27;89628;-72
2023/09/16 14:38:03;;;;;;;;;;;;;;;;;;5046018;27;89740;-74
2023/09/16 14:40:28;;;;;;;;;;;;;;;;;;5044467;27;90717;-75
2023/09/16 14:42:53;;;;;;;;;;;;;;;;;;5046613;27;89507;-75
2023/09/16 14:45:19;;;;;;;;;;;;;;;;;;5047989;27;88976;-79
2023/09/16 14:47:46;;;;;;;;;;;;;;;;;;5046108;27;90902;-78
2023/09/16 14:50:11;;;;;;;;;;;;;;;;;;5045557;27;89427;-77
2023/09/16 14:52:38;;;;;;;;;;;;;;;;;;5047827;27;89661;-73
2023/09/16 14:55:07;;;;;;;;;;;;;;;;;;5048123;27;90414;-70
2023/09/16 14:57:33;;;;;;;;;;;;;;;;;;5048755;27;89616;-71
2023/09/16 14:59:58;;;;;;;;;;;;;;;;;;5049258;27;90755;-70
2023/09/16 15:02:23;;;;;;;;;;;;;;;;;;5037645;27;92244;-73
2023/09/16 15:04:55;;;;;;;;;;;;;;;;;;5039881;27;89698;-69
2023/09/16 15:07:22;;;;;;;;;;;;;;;;;;5045375;27;89454;-77
2023/09/16 15:09:48;;;;;;;;;;;;;;;;;;5045369;27;90022;-73
2023/09/16 15:12:13;;;;;;;;;;;;;;;;;;5040208;27;89667;-72
2023/09/16 15:14:38;;;;;;;;;;;;;;;;;;5041311;27;89631;-70
2023/09/16 15:17:04;;;;;;;;;;;;;;;;;;5045446;27;92045;-66
2023/09/16 15:19:29;;;;;;;;;;;;;;;;;;5043404;27;90753;-70
2023/09/16 15:21:54;;;;;;;;;;;;;;;;;;5045274;27;90531;-68
2023/09/16 15:24:19;;;;;;;;;;;;;;;;;;5037616;27;89076;-67
2023/09/16 15:26:45;;;;;;;;;;;;;;;;;;5042091;27;90117;-64
2023/09/16 15:29:10;;;;;;;;;;;;;;;;;;5043030;27;90226;-69
2023/09/16 15:31:36;;;;;;;;;;;;;;;;;;5042814;27;89919;-65
2023/09/16 15:34:02;;;;;;;;;;;;;;;;;;5043437;27;92302;-69
2023/09/16 15:36:27;;;;;;;;;;;;;;;;;;5041766;27;89650;-64
2023/09/16 15:38:52;;;;;;;;;;;;;;;;;;5044755;27;89569;-65
2023/09/16 15:41:17;;;;;;;;;;;;;;;;;;5043040;27;89581;-66
2023/09/16 15:43:44;;;;;;;;;;;;;;;;;;5041345;27;89405;-64
2023/09/16 15:46:11;;;;;;;;;;;;;;;;;;5039256;27;90713;-67
2023/09/16 15:48:36;;;;;;;;;;;;;;;;;;5040307;27;90580;-65
2023/09/16 15:51:01;;;;;;;;;;;;;;;;;;5040350;27;90367;-65
2023/09/16 15:53:27;;;;;;;;;;;;;;;;;;5040168;27;90534;-65
2023/09/16 15:55:52;;;;;;;;;;;;;;;;;;5044317;27;90206;-65
2023/09/16 15:58:18;;;;;;;;;;;;;;;;;;5043909;27;89753;-66
2023/09/16 16:00:48;;;;;;;;;;;;;;;;;;5046997;27;89541;-72
2023/09/16 16:03:14;;;;;;;;;;;;;;;;;;5038658;27;89842;-70
2023/09/16 16:05:39;;;;;;;;;;;;;;;;;;5044276;27;89551;-69
2023/09/16 16:08:04;;;;;;;;;;;;;;;;;;5046860;27;89566;-70
2023/09/16 16:10:29;;;;;;;;;;;;;;;;;;5043450;27;89627;-66
2023/09/16 16:12:54;;;;;;;;;;;;;;;;;;5044377;27;90451;-71
2023/09/16 16:15:20;;;;;;;;;;;;;;;;;;5042210;27;91351;-71
2023/09/16 16:17:45;;;;;;;;;;;;;;;;;;5044179;27;89632;-70
2023/09/16 16:20:11;;;;;;;;;;;;;;;;;;5041094;27;89594;-71
2023/09/16 16:22:36;;;;;;;;;;;;;;;;;;5045067;27;89492;-67
2023/09/16 16:25:01;;;;;;;;;;;;;;;;;;5046119;27;89717;-73
2023/09/16 16:27:26;;;;;;;;;;;;;;;;;;5045884;27;90188;-66
2023/09/16 16:29:51;;;;;;;;;;;;;;;;;;5045224;27;89617;-72
2023/09/16 16:32:19;;;;;;;;;;;;;;;;;;5042635;27;89887;-71
2023/09/16 16:34:46;;;;;;;;;;;;;;;;;;5040060;27;89528;-68
2023/09/16 16:37:11;;;;;;;;;;;;;;;;;;5046042;27;89376;-70